createdAt,value
2018-09-28T00:01:32.455Z,1.00
2018-09-28T00:04:01.144Z,1.20
2018-09-28T00:06:29.809Z,0.67
2018-09-28T00:08:58.452Z,1.00
2018-09-28T00:11:27.088Z,0.60
2018-09-28T00:13:55.745Z,0.90
2018-09-28T00:16:24.396Z,1.67
2018-09-28T00:18:53.045Z,0.90
2018-09-28T00:21:21.698Z,0.60
2018-09-28T00:23:50.372Z,1.13
2018-09-28T00:26:19.857Z,0.80
2018-09-28T00:28:48.517Z,1.27
2018-09-28T00:31:17.212Z,0.87
2018-09-28T00:33:45.878Z,0.63
2018-09-28T00:36:14.529Z,0.50
2018-09-28T00:38:43.191Z,0.70
2018-09-28T00:41:11.820Z,0.77
2018-09-28T00:43:40.457Z,0.90
2018-09-28T00:46:09.500Z,1.10
2018-09-28T00:48:38.158Z,0.70
2018-09-28T00:51:06.808Z,1.20
2018-09-28T00:53:35.443Z,0.80
2018-09-28T00:56:04.096Z,1.17
2018-09-28T00:58:32.753Z,0.93
2018-09-28T01:01:01.396Z,0.90
2018-09-28T01:03:30.061Z,0.80
2018-09-28T01:05:58.734Z,2.40
2018-09-28T01:08:27.672Z,0.67
2018-09-28T01:10:56.338Z,1.17
2018-09-28T01:13:25.000Z,0.87
2018-09-28T01:15:53.641Z,0.60
2018-09-28T01:18:22.340Z,0.67
2018-09-28T01:20:50.980Z,0.63
2018-09-28T01:23:19.643Z,1.03
2018-09-28T01:25:48.300Z,0.73
2018-09-28T01:28:16.936Z,0.57
2018-09-28T01:30:45.925Z,0.77
2018-09-28T01:33:14.576Z,0.70
2018-09-28T01:35:43.215Z,1.40
2018-09-28T01:38:11.857Z,0.70
2018-09-28T01:40:40.496Z,0.50
2018-09-28T01:43:09.182Z,1.13
2018-09-28T01:45:37.822Z,1.07
2018-09-28T01:48:06.485Z,0.60
2018-09-28T01:50:35.162Z,0.83
2018-09-28T01:53:03.820Z,0.83
2018-09-28T01:55:32.509Z,0.50
2018-09-28T01:58:01.173Z,0.80
2018-09-28T02:00:29.812Z,0.77
2018-09-28T02:02:58.476Z,0.70
2018-09-28T02:05:27.173Z,0.63
2018-09-28T02:07:55.831Z,0.60
2018-09-28T02:10:24.529Z,0.60
2018-09-28T02:12:53.186Z,0.87
2018-09-28T02:15:21.817Z,0.60
2018-09-28T02:17:50.584Z,0.80
2018-09-28T02:20:19.252Z,0.77
2018-09-28T02:22:47.897Z,0.60
2018-09-28T02:25:16.736Z,0.60
2018-09-28T02:27:45.377Z,0.70
2018-09-28T02:30:14.061Z,0.67
2018-09-28T02:32:42.708Z,0.50
2018-09-28T02:35:11.468Z,1.60
2018-09-28T02:37:40.124Z,0.80
2018-09-28T02:40:08.764Z,0.87
2018-09-28T02:42:37.433Z,1.17
2018-09-28T02:45:06.136Z,1.37
2018-09-28T02:47:34.841Z,0.70
2018-09-28T02:50:03.512Z,0.70
2018-09-28T02:52:32.136Z,0.47
2018-09-28T02:55:00.844Z,0.73
2018-09-28T02:57:29.529Z,0.50
2018-09-28T02:59:58.188Z,1.10
2018-09-28T03:02:26.848Z,1.00
2018-09-28T03:04:55.480Z,0.57
2018-09-28T03:07:24.116Z,0.73
2018-09-28T03:09:52.767Z,0.47
2018-09-28T03:12:21.410Z,0.57
2018-09-28T03:14:50.082Z,0.70
2018-09-28T03:17:18.733Z,0.97
2018-09-28T03:19:47.376Z,0.83
2018-09-28T03:22:16.025Z,0.90
2018-09-28T03:24:44.723Z,0.70
2018-09-28T03:27:13.398Z,0.57
2018-09-28T03:29:42.045Z,1.80
2018-09-28T03:32:10.705Z,0.53
2018-09-28T03:34:39.376Z,0.63
2018-09-28T03:37:08.042Z,0.57
2018-09-28T03:39:36.684Z,1.37
2018-09-28T03:42:05.316Z,0.80
2018-09-28T03:44:33.948Z,0.70
2018-09-28T03:47:02.933Z,0.70
2018-09-28T03:49:31.888Z,0.83
2018-09-28T03:52:00.532Z,0.80
2018-09-28T03:54:29.196Z,0.70
2018-09-28T03:56:57.853Z,0.70
2018-09-28T03:59:26.500Z,0.80
2018-09-28T04:01:55.188Z,0.57
2018-09-28T04:04:23.861Z,1.33
2018-09-28T04:06:52.500Z,1.33
2018-09-28T04:09:21.280Z,0.93
2018-09-28T04:11:49.948Z,1.00
2018-09-28T04:14:18.612Z,1.33
2018-09-28T04:16:47.300Z,1.20
2018-09-28T04:19:15.964Z,0.67
2018-09-28T04:21:50.997Z,1.03
2018-09-28T04:24:19.644Z,1.07
2018-09-28T04:26:48.364Z,0.77
2018-09-28T04:29:17.033Z,0.60
2018-09-28T04:31:45.674Z,1.03
2018-09-28T04:34:14.389Z,0.87
2018-09-28T04:36:43.048Z,0.83
2018-09-28T04:39:11.728Z,0.67
2018-09-28T04:41:40.692Z,0.80
2018-09-28T04:44:09.774Z,0.87
2018-09-28T04:46:38.568Z,0.70
2018-09-28T04:49:07.716Z,1.07
2018-09-28T04:51:36.391Z,0.93
2018-09-28T04:54:05.440Z,1.40
2018-09-28T04:56:34.092Z,2.10
2018-09-28T04:59:02.772Z,0.77
2018-09-28T05:01:31.428Z,1.23
2018-09-28T05:04:00.125Z,1.37
2018-09-28T05:06:28.977Z,0.90
2018-09-28T05:08:57.644Z,0.80
2018-09-28T05:11:26.300Z,0.83
2018-09-28T05:13:54.961Z,0.60
2018-09-28T05:16:23.620Z,1.53
2018-09-28T05:18:52.259Z,1.13
2018-09-28T05:21:20.894Z,1.20
2018-09-28T05:23:49.528Z,1.80
2018-09-28T05:26:18.191Z,1.10
2018-09-28T05:28:46.848Z,0.90
2018-09-28T05:31:15.748Z,1.53
2018-09-28T05:33:44.340Z,0.80
2018-09-28T05:36:12.989Z,1.20
2018-09-28T05:38:41.620Z,1.00
2018-09-28T05:41:10.413Z,1.17
2018-09-28T05:43:39.106Z,1.07
2018-09-28T05:46:08.148Z,0.63
2018-09-28T05:48:36.811Z,1.43
2018-09-28T05:51:07.094Z,1.10
2018-09-28T05:53:36.020Z,1.17
2018-09-28T05:56:04.701Z,1.13
2018-09-28T05:58:38.736Z,1.40
2018-09-28T06:01:13.050Z,1.03
2018-09-28T06:03:47.015Z,0.67
2018-09-28T06:06:15.707Z,0.97
2018-09-28T06:08:44.375Z,0.70
2018-09-28T06:11:13.030Z,0.90
2018-09-28T06:13:41.675Z,1.53
2018-09-28T06:16:10.344Z,1.13
2018-09-28T06:18:39.127Z,1.27
2018-09-28T06:21:07.720Z,1.33
2018-09-28T06:23:36.435Z,0.80
2018-09-28T06:26:05.357Z,0.70
2018-09-28T06:28:34.208Z,0.93
2018-09-28T06:31:02.845Z,1.03
2018-09-28T06:33:31.464Z,0.60
2018-09-28T06:36:00.160Z,1.03
2018-09-28T06:38:28.801Z,0.90
2018-09-28T06:40:57.460Z,0.97
2018-09-28T06:43:26.128Z,1.53
2018-09-28T06:45:54.776Z,1.50
2018-09-28T06:48:23.460Z,1.07
2018-09-28T06:50:52.077Z,0.70
2018-09-28T06:53:20.724Z,0.97
2018-09-28T06:55:49.385Z,1.20
2018-09-28T06:58:18.047Z,1.07
2018-09-28T07:00:46.672Z,1.27
2018-09-28T07:03:15.313Z,1.23
2018-09-28T07:05:43.989Z,1.73
2018-09-28T07:08:12.648Z,1.10
2018-09-28T07:10:41.336Z,0.90
2018-09-28T07:13:09.984Z,0.80
2018-09-28T07:15:38.642Z,0.83
2018-09-28T07:18:07.372Z,1.10
2018-09-28T07:20:35.992Z,1.20
2018-09-28T07:23:04.624Z,1.10
2018-09-28T07:25:33.288Z,0.90
2018-09-28T07:28:01.928Z,1.07
2018-09-28T07:30:30.573Z,1.23
2018-09-28T07:32:59.244Z,1.03
2018-09-28T07:35:27.888Z,0.97
2018-09-28T07:37:56.513Z,2.47
2018-09-28T07:40:25.421Z,1.47
2018-09-28T07:42:54.132Z,0.87
2018-09-28T07:45:22.788Z,1.27
2018-09-28T07:47:51.498Z,2.10
2018-09-28T07:50:20.092Z,1.17
2018-09-28T07:52:48.746Z,1.13
2018-09-28T07:55:17.391Z,0.97
2018-09-28T07:57:46.026Z,0.90
2018-09-28T08:00:14.685Z,1.13
2018-09-28T08:02:43.359Z,1.20
2018-09-28T08:05:12.024Z,1.20
2018-09-28T08:07:40.680Z,1.03
2018-09-28T08:10:09.348Z,0.93
2018-09-28T08:12:37.999Z,1.60
2018-09-28T08:15:06.661Z,0.97
2018-09-28T08:17:35.328Z,2.60
2018-09-28T08:20:04.423Z,1.87
2018-09-28T08:22:33.069Z,1.60
2018-09-28T08:25:01.717Z,1.73
2018-09-28T08:27:30.380Z,1.20
2018-09-28T08:29:59.021Z,1.07
2018-09-28T08:32:27.663Z,1.17
2018-09-28T08:34:56.306Z,1.10
2018-09-28T08:37:25.209Z,0.90
2018-09-28T08:39:53.881Z,1.40
2018-09-28T08:42:22.538Z,1.00
2018-09-28T08:44:51.189Z,1.40
2018-09-28T08:47:19.837Z,0.90
2018-09-28T08:49:48.485Z,2.80
2018-09-28T08:52:17.148Z,1.07
2018-09-28T08:54:45.807Z,1.10
2018-09-28T08:57:14.512Z,1.03
2018-09-28T08:59:43.173Z,1.70
2018-09-28T09:02:12.116Z,1.00
2018-09-28T09:04:41.422Z,1.20
2018-09-28T09:07:10.067Z,2.10
2018-09-28T09:09:38.710Z,0.87
2018-09-28T09:12:07.374Z,0.83
2018-09-28T09:14:36.032Z,1.30
2018-09-28T09:17:04.672Z,1.47
2018-09-28T09:19:33.330Z,0.97
2018-09-28T09:22:01.972Z,1.10
2018-09-28T09:24:30.605Z,1.73
2018-09-28T09:26:59.256Z,1.53
2018-09-28T09:29:27.936Z,1.17
2018-09-28T09:31:56.589Z,1.07
2018-09-28T09:34:25.280Z,0.83
2018-09-28T09:36:53.935Z,0.83
2018-09-28T09:39:22.569Z,1.70
2018-09-28T09:41:51.204Z,1.87
2018-09-28T09:44:19.864Z,0.80
2018-09-28T09:46:48.525Z,1.07
2018-09-28T09:49:17.174Z,1.20
2018-09-28T09:51:45.821Z,0.97
2018-09-28T09:54:14.476Z,0.70
2018-09-28T09:56:43.128Z,1.13
2018-09-28T09:59:12.266Z,1.20
2018-09-28T10:01:46.321Z,0.90
2018-09-28T10:04:14.991Z,2.27
2018-09-28T10:06:43.692Z,2.30
2018-09-28T10:09:13.944Z,1.00
2018-09-28T10:11:42.980Z,1.13
2018-09-28T10:14:11.914Z,1.23
2018-09-28T10:16:40.553Z,1.30
2018-09-28T10:19:09.633Z,1.73
2018-09-28T10:21:38.268Z,1.20
2018-09-28T10:24:07.021Z,1.30
2018-09-28T10:26:35.663Z,1.10
2018-09-28T10:29:04.361Z,0.90
2018-09-28T10:31:33.003Z,1.73
2018-09-28T10:34:01.640Z,0.83
2018-09-28T10:36:30.296Z,1.17
2018-09-28T10:38:58.943Z,1.20
2018-09-28T10:41:27.594Z,1.33
2018-09-28T10:43:56.294Z,1.10
2018-09-28T10:46:24.969Z,1.00
2018-09-28T10:48:53.820Z,1.43
2018-09-28T10:51:22.619Z,1.27
2018-09-28T10:53:51.176Z,0.93
2018-09-28T10:56:19.833Z,1.90
2018-09-28T10:58:48.537Z,1.30
2018-09-28T11:01:17.198Z,1.00
2018-09-28T11:03:46.036Z,1.60
2018-09-28T11:06:14.588Z,1.70
2018-09-28T11:08:43.271Z,1.33
2018-09-28T11:11:11.972Z,1.13
2018-09-28T11:13:40.637Z,0.97
2018-09-28T11:16:09.370Z,1.13
2018-09-28T11:18:38.014Z,1.10
2018-09-28T11:21:06.908Z,1.27
2018-09-28T11:23:35.565Z,0.67
2018-09-28T11:26:04.202Z,1.03
2018-09-28T11:28:32.861Z,0.97
2018-09-28T11:31:01.521Z,1.10
2018-09-28T11:33:30.222Z,1.27
2018-09-28T11:35:59.161Z,2.00
2018-09-28T11:38:27.836Z,1.57
2018-09-28T11:40:56.500Z,1.30
2018-09-28T11:43:25.152Z,1.10
2018-09-28T11:45:53.896Z,1.10
2018-09-28T11:48:22.476Z,1.30
2018-09-28T11:50:51.133Z,1.00
2018-09-28T11:53:19.776Z,0.83
2018-09-28T11:55:48.448Z,0.97
2018-09-28T11:58:17.096Z,1.10
2018-09-28T12:00:45.741Z,0.77
2018-09-28T12:03:14.511Z,1.40
2018-09-28T12:05:43.128Z,1.30
2018-09-28T12:08:11.764Z,1.20
2018-09-28T12:10:40.404Z,1.40
2018-09-28T12:13:09.061Z,1.13
2018-09-28T12:15:37.819Z,1.97
2018-09-28T12:18:06.638Z,1.00
2018-09-28T12:20:35.292Z,1.23
2018-09-28T12:23:03.936Z,0.90
2018-09-28T12:25:32.614Z,1.13
2018-09-28T12:28:01.268Z,1.10
2018-09-28T12:30:30.001Z,1.30
2018-09-28T12:32:58.624Z,1.10
2018-09-28T12:35:27.272Z,1.07
2018-09-28T12:37:55.938Z,0.60
2018-09-28T12:40:24.641Z,1.07
2018-09-28T12:42:53.317Z,1.03
2018-09-28T12:45:22.028Z,2.33
2018-09-28T12:47:50.625Z,1.03
2018-09-28T12:50:19.306Z,1.37
2018-09-28T12:52:48.094Z,0.60
2018-09-28T12:55:16.729Z,1.03
2018-09-28T12:57:45.388Z,1.10
2018-09-28T13:00:14.068Z,1.00
2018-09-28T13:02:42.817Z,1.13
2018-09-28T13:05:11.435Z,1.53
2018-09-28T13:07:40.094Z,1.20
2018-09-28T13:10:08.896Z,1.73
2018-09-28T13:12:37.566Z,1.33
2018-09-28T13:15:06.373Z,1.63
2018-09-28T13:17:34.916Z,1.13
2018-09-28T13:20:03.612Z,1.40
2018-09-28T13:22:32.273Z,1.27
2018-09-28T13:25:00.929Z,0.97
2018-09-28T13:27:29.600Z,0.80
2018-09-28T13:29:58.257Z,1.77
2018-09-28T13:32:26.919Z,0.97
2018-09-28T13:34:55.596Z,1.00
2018-09-28T13:37:24.256Z,0.80
2018-09-28T13:39:52.902Z,1.33
2018-09-28T13:42:21.609Z,0.70
2018-09-28T13:44:50.303Z,1.10
2018-09-28T13:47:18.939Z,0.70
2018-09-28T13:49:47.592Z,1.00
2018-09-28T13:52:16.256Z,1.10
2018-09-28T13:54:44.985Z,2.13
2018-09-28T13:57:13.576Z,1.07
2018-09-28T13:59:42.231Z,0.83
2018-09-28T14:02:10.870Z,0.60
2018-09-28T14:04:39.569Z,1.00
2018-09-28T14:07:08.310Z,1.17
2018-09-28T14:09:36.888Z,1.03
2018-09-28T14:12:05.589Z,1.30
2018-09-28T14:14:34.252Z,1.20
2018-09-28T14:17:02.921Z,0.83
2018-09-28T14:19:31.591Z,2.07
2018-09-28T14:22:00.464Z,0.97
2018-09-28T14:24:29.264Z,1.17
2018-09-28T14:26:57.799Z,1.30
2018-09-28T14:29:26.456Z,1.00
2018-09-28T14:31:55.127Z,1.00
2018-09-28T14:34:23.840Z,1.67
2018-09-28T14:36:52.444Z,0.80
2018-09-28T14:39:21.079Z,0.90
2018-09-28T14:41:49.778Z,1.23
2018-09-28T14:44:18.497Z,1.07
2018-09-28T14:46:47.145Z,1.07
2018-09-28T14:49:15.847Z,1.07
2018-09-28T14:51:44.424Z,1.43
2018-09-28T14:54:13.154Z,1.53
2018-09-28T14:56:41.755Z,1.07
2018-09-28T14:59:10.383Z,1.10
2018-09-28T15:01:39.040Z,1.10
2018-09-28T15:04:07.700Z,1.03
2018-09-28T15:06:36.491Z,1.43
2018-09-28T15:09:07.304Z,1.70
2018-09-28T15:11:36.248Z,0.90
2018-09-28T15:14:04.887Z,1.63
2018-09-28T15:16:33.585Z,0.93
2018-09-28T15:19:02.245Z,2.23
2018-09-28T15:21:30.897Z,1.13
2018-09-28T15:23:59.568Z,0.97
2018-09-28T15:26:28.196Z,0.80
2018-09-28T15:28:57.152Z,1.00
2018-09-28T15:31:25.809Z,1.10
2018-09-28T15:33:54.846Z,0.77
2018-09-28T15:36:23.505Z,1.30
2018-09-28T15:38:52.141Z,1.70
2018-09-28T15:41:20.783Z,1.00
2018-09-28T15:43:49.464Z,1.27
2018-09-28T15:46:18.131Z,0.80
2018-09-28T15:48:46.792Z,1.30
2018-09-28T15:51:15.449Z,1.10
2018-09-28T15:53:44.116Z,1.30
2018-09-28T15:56:12.756Z,0.90
2018-09-28T15:58:41.409Z,1.20
2018-09-28T16:01:10.067Z,1.07
2018-09-28T16:03:39.104Z,1.70
2018-09-28T16:06:07.765Z,1.37
2018-09-28T16:08:36.411Z,1.10
2018-09-28T16:11:05.060Z,0.80
2018-09-28T16:13:33.712Z,1.40
2018-09-28T16:16:02.348Z,1.20
2018-09-28T16:18:30.992Z,1.00
2018-09-28T16:20:59.645Z,1.07
2018-09-28T16:23:28.285Z,1.00
2018-09-28T16:25:56.937Z,1.30
2018-09-28T16:28:25.589Z,1.70
2018-09-28T16:30:54.247Z,1.33
2018-09-28T16:33:22.906Z,1.90
2018-09-28T16:35:51.620Z,1.53
2018-09-28T16:38:20.704Z,1.10
2018-09-28T16:40:49.376Z,1.00
2018-09-28T16:43:18.300Z,1.53
2018-09-28T16:45:47.289Z,1.73
2018-09-28T16:48:15.966Z,1.27
2018-09-28T16:50:44.628Z,1.10
2018-09-28T16:53:13.648Z,1.17
2018-09-28T16:55:42.316Z,1.20
2018-09-28T16:58:10.973Z,1.43
2018-09-28T17:00:39.664Z,1.20
2018-09-28T17:03:09.177Z,2.67
2018-09-28T17:05:37.817Z,1.20
2018-09-28T17:08:06.464Z,1.60
2018-09-28T17:10:35.106Z,1.60
2018-09-28T17:13:03.758Z,1.60
2018-09-28T17:15:32.398Z,1.27
2018-09-28T17:18:01.044Z,2.10
2018-09-28T17:20:29.704Z,1.23
2018-09-28T17:22:58.362Z,1.27
2018-09-28T17:25:27.000Z,2.13
2018-09-28T17:27:55.872Z,1.40
2018-09-28T17:30:24.529Z,1.40
2018-09-28T17:32:53.169Z,1.93
2018-09-28T17:35:21.809Z,1.20
2018-09-28T17:37:50.445Z,2.60
2018-09-28T17:40:19.116Z,1.30
2018-09-28T17:42:47.760Z,3.17
2018-09-28T17:45:16.446Z,1.23
2018-09-28T17:47:45.108Z,1.77
2018-09-28T17:50:13.748Z,1.87
2018-09-28T17:52:42.414Z,1.53
2018-09-28T17:55:11.064Z,1.30
2018-09-28T17:57:39.709Z,1.47
2018-09-28T18:00:08.637Z,1.87
2018-09-28T18:02:37.296Z,2.50
2018-09-28T18:05:06.264Z,2.10
2018-09-28T18:07:34.952Z,1.43
2018-09-28T18:10:03.613Z,1.77
2018-09-28T18:12:32.524Z,2.17
2018-09-28T18:15:01.497Z,4.13
2018-09-28T18:17:30.140Z,1.60
2018-09-28T18:19:58.865Z,1.63
2018-09-28T18:22:27.613Z,2.03
2018-09-28T18:24:56.461Z,2.40
2018-09-28T18:27:25.112Z,1.73
2018-09-28T18:29:53.749Z,2.00
2018-09-28T18:32:22.435Z,1.97
2018-09-28T18:34:51.089Z,2.60
2018-09-28T18:37:19.781Z,3.13
2018-09-28T18:39:48.420Z,3.27
2018-09-28T18:42:17.743Z,2.67
2018-09-28T18:44:46.400Z,4.03
2018-09-28T18:47:15.047Z,3.97
2018-09-28T18:49:43.741Z,3.20
2018-09-28T18:52:12.421Z,3.30
2018-09-28T18:54:41.071Z,4.20
2018-09-28T18:57:09.789Z,3.57
2018-09-28T18:59:38.438Z,4.23
2018-09-28T19:02:07.588Z,3.60
2018-09-28T19:04:36.248Z,4.47
2018-09-28T19:07:05.396Z,3.47
2018-09-28T19:09:34.040Z,3.73
2018-09-28T19:12:02.741Z,4.40
2018-09-28T19:14:31.400Z,4.00
2018-09-28T19:17:00.058Z,3.77
2018-09-28T19:19:28.709Z,4.77
2018-09-28T19:21:57.494Z,4.03
2018-09-28T19:24:26.137Z,3.30
2018-09-28T19:26:54.780Z,4.33
2018-09-28T19:29:23.440Z,4.97
2018-09-28T19:31:52.100Z,4.87
2018-09-28T19:34:20.742Z,5.37
2018-09-28T19:36:49.385Z,4.07
2018-09-28T19:39:18.072Z,4.20
2018-09-28T19:41:46.717Z,5.13
2018-09-28T19:44:15.368Z,3.57
2018-09-28T19:46:44.028Z,3.63
2018-09-28T19:49:12.698Z,4.67
2018-09-28T19:51:41.384Z,4.00
2018-09-28T19:54:10.048Z,3.87
2018-09-28T19:56:38.724Z,3.97
2018-09-28T19:59:07.509Z,4.40
2018-09-28T20:01:36.157Z,3.60
2018-09-28T20:04:04.825Z,3.37
2018-09-28T20:06:33.494Z,3.63
2018-09-28T20:09:02.203Z,5.20
2018-09-28T20:11:30.841Z,4.07
2018-09-28T20:13:59.488Z,3.47
2018-09-28T20:16:28.131Z,4.57
2018-09-28T20:18:56.793Z,3.87
2018-09-28T20:21:25.447Z,3.73
2018-09-28T20:23:54.145Z,4.33
2018-09-28T20:26:22.788Z,3.23
2018-09-28T20:28:51.501Z,3.70
2018-09-28T20:31:20.171Z,3.13
2018-09-28T20:33:48.820Z,4.60
2018-09-28T20:36:17.481Z,3.43
2018-09-28T20:38:46.169Z,3.60
2018-09-28T20:41:15.168Z,3.07
2018-09-28T20:43:43.847Z,3.40
2018-09-28T20:46:12.509Z,3.73
2018-09-28T20:48:41.164Z,2.40
2018-09-28T20:51:09.809Z,3.13
2018-09-28T20:53:38.501Z,3.03
2018-09-28T20:56:07.171Z,3.30
2018-09-28T20:58:35.869Z,3.60
2018-09-28T21:01:04.669Z,3.33
2018-09-28T21:03:33.311Z,3.43
2018-09-28T21:06:01.953Z,4.03
2018-09-28T21:08:30.595Z,2.23
2018-09-28T21:10:59.232Z,4.33
2018-09-28T21:13:27.931Z,2.97
2018-09-28T21:15:56.561Z,3.27
2018-09-28T21:18:25.204Z,3.37
2018-09-28T21:20:53.910Z,2.87
2018-09-28T21:23:22.572Z,3.23
2018-09-28T21:25:51.439Z,2.57
2018-09-28T21:28:20.100Z,2.83
2018-09-28T21:30:48.776Z,2.93
2018-09-28T21:33:17.570Z,3.23
2018-09-28T21:35:46.095Z,4.20
2018-09-28T21:38:14.757Z,2.50
2018-09-28T21:40:43.410Z,2.30
2018-09-28T21:43:12.072Z,2.87
2018-09-28T21:45:40.749Z,2.07
2018-09-28T21:48:09.443Z,3.20
2018-09-28T21:50:38.100Z,2.93
2018-09-28T21:53:07.092Z,2.20
2018-09-28T21:55:35.764Z,3.53
2018-09-28T21:58:04.427Z,3.77
2018-09-28T22:00:37.397Z,3.33
2018-09-28T22:03:07.396Z,3.50
2018-09-28T22:05:36.302Z,4.67
2018-09-28T22:08:04.937Z,3.10
2018-09-28T22:10:34.295Z,2.50
2018-09-28T22:13:02.934Z,2.47
2018-09-28T22:15:31.636Z,2.80
2018-09-28T22:18:00.284Z,4.17
2018-09-28T22:20:28.918Z,1.80
2018-09-28T22:22:57.578Z,1.97
2018-09-28T22:25:26.222Z,2.47
2018-09-28T22:27:54.903Z,2.53
2018-09-28T22:30:23.567Z,2.40
2018-09-28T22:32:52.219Z,3.47
2018-09-28T22:35:20.888Z,2.40
2018-09-28T22:37:49.535Z,2.10
2018-09-28T22:40:18.180Z,2.77
2018-09-28T22:42:46.954Z,2.10
2018-09-28T22:45:15.597Z,2.73
2018-09-28T22:47:44.237Z,3.10
2018-09-28T22:50:12.884Z,2.60
2018-09-28T22:52:41.636Z,2.83
2018-09-28T22:55:10.280Z,2.67
2018-09-28T22:57:38.920Z,3.60
2018-09-28T23:00:07.558Z,3.37
2018-09-28T23:02:36.200Z,2.00
2018-09-28T23:05:04.857Z,2.23
2018-09-28T23:07:33.549Z,2.10
2018-09-28T23:10:02.195Z,2.40
2018-09-28T23:12:30.859Z,2.20
2018-09-28T23:14:59.533Z,2.07
2018-09-28T23:17:28.174Z,2.27
2018-09-28T23:19:56.825Z,2.20
2018-09-28T23:22:25.510Z,2.50
2018-09-28T23:24:54.176Z,2.20
2018-09-28T23:27:22.812Z,1.87
2018-09-28T23:29:51.469Z,2.80
2018-09-28T23:32:20.120Z,2.57
2018-09-28T23:34:48.781Z,2.20
2018-09-28T23:37:17.457Z,2.20
2018-09-28T23:39:46.117Z,1.97
2018-09-28T23:42:14.763Z,3.07
2018-09-28T23:44:43.420Z,2.53
2018-09-28T23:47:12.100Z,1.77
2018-09-28T23:49:40.760Z,1.97
2018-09-28T23:52:09.452Z,2.47
2018-09-28T23:54:38.511Z,2.20
2018-09-28T23:57:07.184Z,2.27
2018-09-28T23:59:36.158Z,2.23
